Time;durP1;ratioP1;P1;durP2;ratioP2;P2;SDS_P1;SDS_P2;PMS_P1;PMS_P2;Temp;Humidity;BMP_temperature;BMP_pressure;BME280_temperature;BME280_humidity;BME280_pressure;Samples;Min_cycle;Max_cycle;Signal;HPM_P1;HPM_P2
2022/08/11 00:00:15;;;;;;;2.75;1.60;;;;;;;;;;5092072;28;20228;-16
2022/08/11 00:02:44;;;;;;;1.90;1.73;;;;;;;;;;5090846;28;20237;-17
2022/08/11 00:05:13;;;;;;;5.10;1.65;;;;;;;;;;5079739;28;20232;-17
2022/08/11 00:07:42;;;;;;;3.15;1.75;;;;;;;;;;5092265;28;20732;-16
2022/08/11 00:10:10;;;;;;;4.72;1.83;;;;;;;;;;5081243;28;20699;-16
2022/08/11 00:12:37;;;;;;;2.15;1.80;;;;;;;;;;5079340;28;21051;-17
2022/08/11 00:15:05;;;;;;;2.13;1.90;;;;;;;;;;5090728;28;21027;-16
2022/08/11 00:17:33;;;;;;;3.20;1.95;;;;;;;;;;5092312;28;20228;-17
2022/08/11 00:20:01;;;;;;;4.45;1.80;;;;;;;;;;5084005;28;20233;-16
2022/08/11 00:22:43;;;;;;;2.10;1.90;;;;;;;;;;5083740;28;20240;-16
2022/08/11 00:25:11;;;;;;;4.07;1.95;;;;;;;;;;5087693;28;20244;-17
2022/08/11 00:27:39;;;;;;;2.88;1.70;;;;;;;;;;5082178;28;20236;-17
2022/08/11 00:30:06;;;;;;;2.70;1.85;;;;;;;;;;5074711;28;20229;-17
2022/08/11 00:32:34;;;;;;;3.50;1.80;;;;;;;;;;5091370;28;20236;-17
2022/08/11 00:35:02;;;;;;;2.47;1.80;;;;;;;;;;5080150;28;20229;-17
2022/08/11 00:37:50;;;;;;;3.45;1.90;;;;;;;;;;5077850;28;20232;-16
2022/08/11 00:40:18;;;;;;;2.10;1.90;;;;;;;;;;5091232;28;20239;-16
2022/08/11 00:42:46;;;;;;;3.13;1.90;;;;;;;;;;5081368;28;20240;-16
2022/08/11 00:45:14;;;;;;;1.90;1.70;;;;;;;;;;5091636;28;20229;-16
2022/08/11 00:47:44;;;;;;;2.35;1.80;;;;;;;;;;5091665;28;21032;-16
2022/08/11 00:50:14;;;;;;;1.50;1.40;;;;;;;;;;5081569;28;20233;-17
2022/08/11 00:52:47;;;;;;;3.35;1.90;;;;;;;;;;5082961;28;20649;-17
2022/08/11 00:55:28;;;;;;;2.30;2.10;;;;;;;;;;5080410;28;20233;-17
2022/08/11 00:58:20;;;;;;;2.60;2.20;;;;;;;;;;5091288;28;20233;-16
2022/08/11 01:00:54;;;;;;;2.60;1.80;;;;;;;;;;5091490;28;20282;-16
2022/08/11 01:03:25;;;;;;;2.85;1.60;;;;;;;;;;5075125;28;20282;-16
2022/08/11 01:06:07;;;;;;;2.67;1.80;;;;;;;;;;5084484;28;20232;-17
2022/08/11 01:08:54;;;;;;;2.78;1.77;;;;;;;;;;5069727;28;21089;-16
2022/08/11 01:11:29;;;;;;;2.15;1.77;;;;;;;;;;5087630;28;20229;-16
2022/08/11 01:14:11;;;;;;;3.72;1.70;;;;;;;;;;5091256;28;20216;-16
2022/08/11 01:16:47;;;;;;;2.50;1.90;;;;;;;;;;5085226;28;20229;-17
2022/08/11 01:19:33;;;;;;;2.55;1.88;;;;;;;;;;5082323;28;20263;-17
2022/08/11 01:22:41;;;;;;;2.80;1.85;;;;;;;;;;5079485;28;20244;-16
2022/08/11 01:25:32;;;;;;;2.78;2.05;;;;;;;;;;5056886;28;20228;-16
2022/08/11 01:28:37;;;;;;;2.33;1.70;;;;;;;;;;5085020;28;20263;-16
2022/08/11 01:31:23;;;;;;;2.85;1.90;;;;;;;;;;5084543;28;20232;-16
2022/08/11 01:34:01;;;;;;;2.00;1.80;;;;;;;;;;5083173;28;20225;-17
2022/08/11 01:36:47;;;;;;;2.28;1.77;;;;;;;;;;5088590;28;20232;-17
2022/08/11 01:39:30;;;;;;;1.85;1.75;;;;;;;;;;5084536;28;20838;-17
2022/08/11 01:45:06;;;;;;;2.67;1.60;;;;;;;;;;5074414;28;20236;-17
2022/08/11 01:47:52;;;;;;;2.58;2.05;;;;;;;;;;5077034;28;20236;-16
2022/08/11 01:50:23;;;;;;;3.75;2.00;;;;;;;;;;5083505;28;20221;-17
2022/08/11 01:52:58;;;;;;;2.53;1.80;;;;;;;;;;5071068;28;20237;-17
2022/08/11 01:55:28;;;;;;;1.95;1.65;;;;;;;;;;5073804;28;20233;-16
2022/08/11 01:57:56;;;;;;;1.98;1.75;;;;;;;;;;5076319;28;20225;-17
2022/08/11 02:00:24;;;;;;;2.60;1.98;;;;;;;;;;5076318;28;20253;-17
2022/08/11 02:02:53;;;;;;;2.97;1.95;;;;;;;;;;5078028;28;20985;-17
2022/08/11 02:05:26;;;;;;;2.05;1.73;;;;;;;;;;5090576;28;20237;-16
2022/08/11 02:07:59;;;;;;;2.92;2.08;;;;;;;;;;5084920;28;20229;-16
2022/08/11 02:13:20;;;;;;;5.28;1.98;;;;;;;;;;5093953;28;20685;-17
2022/08/11 02:16:08;;;;;;;2.80;2.00;;;;;;;;;;5093943;28;20244;-17
2022/08/11 02:24:04;;;;;;;2.30;1.60;;;;;;;;;;5045259;28;20252;-15
2022/08/11 02:26:39;;;;;;;1.90;1.70;;;;;;;;;;5052764;28;20241;-15
2022/08/11 02:29:10;;;;;;;5.00;2.08;;;;;;;;;;5040841;28;20234;-15
2022/08/11 02:34:47;;;;;;;2.90;1.67;;;;;;;;;;5053391;28;20284;-15
2022/08/11 02:37:27;;;;;;;2.33;1.60;;;;;;;;;;5053380;28;20238;-15
2022/08/11 02:40:09;;;;;;;2.53;1.88;;;;;;;;;;5053236;28;20222;-15
2022/08/11 02:42:40;;;;;;;2.15;1.95;;;;;;;;;;5052722;28;20346;-15
2022/08/11 02:45:17;;;;;;;2.00;1.70;;;;;;;;;;5058114;28;20234;-15
2022/08/11 02:49:52;;;;;;;2.28;1.90;;;;;;;;;;5053279;28;21038;-15
2022/08/11 02:50:36;;;;;;;4.65;1.77;;;;;;;;;;5042023;28;20234;-15
2022/08/11 02:53:03;;;;;;;3.50;1.60;;;;;;;;;;5059981;28;20229;-15
2022/08/11 02:55:32;;;;;;;5.22;2.30;;;;;;;;;;5052873;28;20230;-15
2022/08/11 02:58:26;;;;;;;3.30;1.67;;;;;;;;;;5051083;28;20707;-15
2022/08/11 03:00:56;;;;;;;3.67;1.85;;;;;;;;;;5039689;28;20226;-15
2022/08/11 03:03:24;;;;;;;3.10;2.22;;;;;;;;;;5052207;28;20353;-15
2022/08/11 03:05:54;;;;;;;1.83;1.73;;;;;;;;;;5052960;28;20226;-15
2022/08/11 03:08:29;;;;;;;2.47;1.60;;;;;;;;;;5052473;28;20233;-15
2022/08/11 03:16:47;;;;;;;2.58;1.90;;;;;;;;;;5052635;28;20233;-15
2022/08/11 03:19:18;;;;;;;2.50;1.80;;;;;;;;;;5058541;28;20283;-15
2022/08/11 03:21:47;;;;;;;2.35;1.98;;;;;;;;;;5048007;28;20250;-15
2022/08/11 03:24:32;;;;;;;2.08;1.85;;;;;;;;;;5032631;28;20985;-15
2022/08/11 03:27:02;;;;;;;2.97;1.60;;;;;;;;;;5032335;28;20233;-15
2022/08/11 03:29:32;;;;;;;2.60;1.70;;;;;;;;;;5018258;28;20364;-15
2022/08/11 03:32:01;;;;;;;2.80;1.35;;;;;;;;;;5032689;28;20241;-15
2022/08/11 03:34:28;;;;;;;2.70;1.75;;;;;;;;;;5032721;28;20238;-15
2022/08/11 03:37:47;;;;;;;3.63;1.83;;;;;;;;;;5032265;28;20238;-15
2022/08/11 03:40:04;;;;;;;3.30;1.88;;;;;;;;;;5032132;28;20237;-15
2022/08/11 03:42:32;;;;;;;3.40;1.90;;;;;;;;;;5032185;28;20230;-15
2022/08/11 03:45:03;;;;;;;2.25;1.63;;;;;;;;;;5032588;28;20242;-15
2022/08/11 03:47:34;;;;;;;2.53;1.98;;;;;;;;;;5025653;28;20253;-15
2022/08/11 03:50:03;;;;;;;3.15;1.73;;;;;;;;;;5032300;28;20227;-15
2022/08/11 03:52:34;;;;;;;3.20;2.03;;;;;;;;;;5032410;28;20967;-15
2022/08/11 03:55:11;;;;;;;2.28;1.80;;;;;;;;;;5032254;28;20313;-15
2022/08/11 03:57:58;;;;;;;2.63;1.60;;;;;;;;;;5032419;28;20222;-15
2022/08/11 04:00:44;;;;;;;2.03;1.80;;;;;;;;;;5033615;28;20237;-15
2022/08/11 04:03:32;;;;;;;1.70;1.50;;;;;;;;;;5038012;28;20229;-15
2022/08/11 04:06:16;;;;;;;3.83;1.73;;;;;;;;;;5052119;28;20230;-15
2022/08/11 04:08:58;;;;;;;2.85;1.80;;;;;;;;;;5018321;28;20231;-15
2022/08/11 04:11:35;;;;;;;3.63;2.00;;;;;;;;;;5032367;28;20227;-15
2022/08/11 04:17:18;;;;;;;2.35;1.90;;;;;;;;;;5031735;28;20277;-15
2022/08/11 04:20:06;;;;;;;3.83;1.83;;;;;;;;;;5028334;28;20235;-15
2022/08/11 04:23:02;;;;;;;1.83;1.60;;;;;;;;;;5030721;28;20238;-15
2022/08/11 04:25:30;;;;;;;2.22;1.98;;;;;;;;;;5031630;28;20234;-15
2022/08/11 04:28:04;;;;;;;2.28;1.77;;;;;;;;;;5031792;28;20238;-15
2022/08/11 04:30:35;;;;;;;2.22;1.77;;;;;;;;;;5030786;28;20244;-15
2022/08/11 04:33:10;;;;;;;3.10;1.67;;;;;;;;;;5027995;28;20304;-15
2022/08/11 04:35:43;;;;;;;2.83;1.75;;;;;;;;;;5045479;28;20234;-15
2022/08/11 04:38:34;;;;;;;2.30;1.80;;;;;;;;;;5019144;28;20258;-15
2022/08/11 04:41:30;;;;;;;1.88;1.70;;;;;;;;;;5023306;28;20233;-15
2022/08/11 04:44:21;;;;;;;1.70;1.58;;;;;;;;;;5035697;28;21116;-15
2022/08/11 04:47:03;;;;;;;3.28;1.75;;;;;;;;;;4980836;28;20323;-15
2022/08/11 05:06:57;;;;;;;2.03;1.80;;;;;;;;;;5044733;28;20623;-15
2022/08/11 05:09:28;;;;;;;2.88;1.80;;;;;;;;;;5030851;28;20234;-15
2022/08/11 05:12:01;;;;;;;3.63;1.63;;;;;;;;;;5035720;28;20725;-15
2022/08/11 05:34:51;;;;;;;2.10;1.92;;;;;;;;;;5030824;28;20226;-15
2022/08/11 05:37:19;;;;;;;2.30;1.63;;;;;;;;;;5030607;28;20219;-15
2022/08/11 05:56:56;;;;;;;2.10;1.90;;;;;;;;;;5034182;28;20319;-15
2022/08/11 05:59:23;;;;;;;2.38;1.90;;;;;;;;;;5033646;28;20686;-15
2022/08/11 06:01:51;;;;;;;2.20;1.70;;;;;;;;;;5042388;28;20222;-15
2022/08/11 06:04:20;;;;;;;2.40;1.60;;;;;;;;;;5019418;28;21056;-15
2022/08/11 06:06:50;;;;;;;2.08;1.77;;;;;;;;;;5033760;28;20714;-15
2022/08/11 06:09:24;;;;;;;1.75;1.63;;;;;;;;;;5033967;28;20235;-15
2022/08/11 06:11:51;;;;;;;3.38;1.73;;;;;;;;;;5033000;28;20249;-15
2022/08/11 06:14:19;;;;;;;2.55;1.80;;;;;;;;;;5047474;28;20709;-15
2022/08/11 06:16:47;;;;;;;2.00;1.75;;;;;;;;;;5053540;28;20226;-15
2022/08/11 06:19:14;;;;;;;2.33;1.75;;;;;;;;;;5041416;28;20246;-15
2022/08/11 06:21:46;;;;;;;3.10;2.10;;;;;;;;;;5032850;28;20295;-15
2022/08/11 06:24:13;;;;;;;2.20;2.00;;;;;;;;;;5033642;28;21047;-15
2022/08/11 06:26:41;;;;;;;2.42;1.80;;;;;;;;;;5037277;28;20773;-15
2022/08/11 06:29:28;;;;;;;4.22;1.90;;;;;;;;;;5041276;28;20237;-15
2022/08/11 06:32:13;;;;;;;2.45;1.83;;;;;;;;;;5036489;28;20609;-15
2022/08/11 06:34:47;;;;;;;3.60;1.80;;;;;;;;;;5019690;28;20231;-15
2022/08/11 06:37:20;;;;;;;1.83;1.60;;;;;;;;;;5046466;28;20230;-15
2022/08/11 06:39:50;;;;;;;2.08;1.80;;;;;;;;;;5046932;28;21075;-15
2022/08/11 06:42:26;;;;;;;3.05;1.80;;;;;;;;;;5033547;28;20230;-15
2022/08/11 06:44:57;;;;;;;2.33;1.80;;;;;;;;;;5032752;28;20244;-15
2022/08/11 06:47:24;;;;;;;3.72;1.90;;;;;;;;;;5039377;28;20276;-15
2022/08/11 06:52:38;;;;;;;2.90;1.80;;;;;;;;;;5032956;28;20230;-15
2022/08/11 06:55:06;;;;;;;3.13;2.05;;;;;;;;;;5032451;28;20227;-15
2022/08/11 07:00:39;;;;;;;2.28;1.63;;;;;;;;;;5037975;28;20645;-15
2022/08/11 07:03:08;;;;;;;2.50;1.75;;;;;;;;;;5038744;28;20720;-15
2022/08/11 07:05:42;;;;;;;1.90;1.70;;;;;;;;;;5044007;28;20235;-15
2022/08/11 07:17:16;;;;;;;3.50;2.00;;;;;;;;;;5005075;28;20246;-15
2022/08/11 07:30:43;;;;;;;2.15;1.88;;;;;;;;;;5009417;28;20694;-15
2022/08/11 07:33:10;;;;;;;2.10;1.85;;;;;;;;;;5032186;28;20222;-15
2022/08/11 07:35:58;;;;;;;2.25;1.98;;;;;;;;;;5032793;28;20230;-15
2022/08/11 07:38:42;;;;;;;2.58;1.80;;;;;;;;;;5031835;28;20717;-15
2022/08/11 07:41:09;;;;;;;4.15;2.28;;;;;;;;;;5032516;28;20254;-15
2022/08/11 07:43:38;;;;;;;4.13;2.10;;;;;;;;;;5039144;28;20234;-15
2022/08/11 07:54:21;;;;;;;1.83;1.70;;;;;;;;;;5032540;28;20713;-15
2022/08/11 07:56:52;;;;;;;2.72;2.10;;;;;;;;;;5032043;28;20231;-15
2022/08/11 08:19:03;;;;;;;3.03;2.28;;;;;;;;;;5032076;28;21040;-15
2022/08/11 08:21:31;;;;;;;1.70;1.50;;;;;;;;;;5042125;28;20269;-15
2022/08/11 08:23:59;;;;;;;1.85;1.60;;;;;;;;;;5034458;28;20233;-15
2022/08/11 08:32:06;;;;;;;3.38;1.90;;;;;;;;;;5017375;28;20725;-15
2022/08/11 08:34:34;;;;;;;1.98;1.73;;;;;;;;;;5031264;28;20242;-15
2022/08/11 08:37:01;;;;;;;2.22;1.90;;;;;;;;;;5031631;28;20229;-15
2022/08/11 08:39:42;;;;;;;3.40;1.67;;;;;;;;;;5045700;28;20230;-15
2022/08/11 08:42:10;;;;;;;2.75;2.05;;;;;;;;;;5032073;28;20235;-15
2022/08/11 08:44:41;;;;;;;2.78;1.90;;;;;;;;;;5031031;28;20698;-15
2022/08/11 08:47:13;;;;;;;2.42;2.00;;;;;;;;;;5037903;28;21072;-15
2022/08/11 08:50:01;;;;;;;3.85;1.80;;;;;;;;;;5031810;28;20234;-15
2022/08/11 08:52:30;;;;;;;1.88;1.73;;;;;;;;;;5031378;28;20234;-15
2022/08/11 08:55:05;;;;;;;3.63;1.70;;;;;;;;;;5017574;28;20242;-15
2022/08/11 08:57:33;;;;;;;1.98;1.80;;;;;;;;;;5031100;28;20293;-15
2022/08/11 09:00:07;;;;;;;2.70;1.90;;;;;;;;;;5030944;28;20230;-15
2022/08/11 09:02:40;;;;;;;4.00;2.22;;;;;;;;;;5031451;28;20234;-15
2022/08/11 09:05:08;;;;;;;2.15;1.77;;;;;;;;;;5031507;28;20229;-15
2022/08/11 09:07:36;;;;;;;2.45;1.98;;;;;;;;;;5030724;28;20325;-15
2022/08/11 09:10:06;;;;;;;2.05;1.67;;;;;;;;;;5030929;28;20257;-15
2022/08/11 09:12:34;;;;;;;2.30;1.77;;;;;;;;;;5031230;28;20237;-15
2022/08/11 09:15:06;;;;;;;2.47;1.98;;;;;;;;;;5031032;28;20293;-15
2022/08/11 09:17:35;;;;;;;5.47;1.95;;;;;;;;;;5041127;28;20236;-15
2022/08/11 09:20:05;;;;;;;2.70;2.10;;;;;;;;;;5030773;28;20321;-15
2022/08/11 09:28:23;;;;;;;5.38;1.90;;;;;;;;;;5030439;28;20234;-15
2022/08/11 09:30:53;;;;;;;3.53;2.00;;;;;;;;;;5034725;28;20711;-15
2022/08/11 09:33:21;;;;;;;3.35;2.30;;;;;;;;;;5030881;28;20230;-15
2022/08/11 09:35:50;;;;;;;2.30;2.10;;;;;;;;;;5030813;28;20234;-15
2022/08/11 09:41:05;;;;;;;2.25;2.03;;;;;;;;;;5030466;28;20231;-15
2022/08/11 09:46:19;;;;;;;2.25;2.05;;;;;;;;;;5030528;28;20970;-15
2022/08/11 09:48:47;;;;;;;3.25;2.30;;;;;;;;;;5030683;28;20227;-15
2022/08/11 09:51:15;;;;;;;3.10;2.60;;;;;;;;;;5036659;28;20236;-15
2022/08/11 09:53:43;;;;;;;4.50;2.20;;;;;;;;;;5030516;28;20233;-15
2022/08/11 09:59:14;;;;;;;2.28;2.08;;;;;;;;;;5030567;28;20694;-15
2022/08/11 10:01:42;;;;;;;2.75;2.45;;;;;;;;;;5038259;28;20969;-15
2022/08/11 10:04:14;;;;;;;3.15;2.17;;;;;;;;;;5030481;28;21051;-15
2022/08/11 10:09:34;;;;;;;2.53;2.10;;;;;;;;;;5030240;28;20686;-15
2022/08/11 10:12:02;;;;;;;2.50;2.03;;;;;;;;;;5030921;28;20226;-15
2022/08/11 10:17:16;;;;;;;3.83;2.63;;;;;;;;;;5028391;28;20234;-15
2022/08/11 10:19:43;;;;;;;2.88;2.40;;;;;;;;;;5030117;28;20237;-15
2022/08/11 10:28:03;;;;;;;3.40;2.40;;;;;;;;;;5030532;28;20273;-15
2022/08/11 10:36:26;;;;;;;2.33;2.05;;;;;;;;;;5033405;28;20314;-14
2022/08/11 10:38:54;;;;;;;2.70;2.17;;;;;;;;;;5033368;28;20239;-14
2022/08/11 10:44:27;;;;;;;2.85;2.47;;;;;;;;;;5033366;28;20239;-15
2022/08/11 10:49:39;;;;;;;5.50;2.63;;;;;;;;;;5033090;28;20234;-14
2022/08/11 11:00:31;;;;;;;4.78;2.65;;;;;;;;;;5044134;28;20289;-14
2022/08/11 11:02:59;;;;;;;3.75;2.17;;;;;;;;;;5032864;28;20853;-14
2022/08/11 11:05:46;;;;;;;3.85;2.72;;;;;;;;;;5032640;28;20685;-14
2022/08/11 11:08:53;;;;;;;3.78;2.40;;;;;;;;;;5039720;28;20231;-14
2022/08/11 11:17:54;;;;;;;2.63;2.30;;;;;;;;;;5033280;28;20242;-14
2022/08/11 11:19:46;;;;;;;3.13;2.20;;;;;;;;;;5038146;28;20231;-14
2022/08/11 11:25:00;;;;;;;2.33;1.92;;;;;;;;;;5032884;28;20231;-15
2022/08/11 11:27:30;;;;;;;5.97;1.85;;;;;;;;;;5032821;28;20740;-15
2022/08/11 11:30:00;;;;;;;3.60;2.30;;;;;;;;;;5031966;28;20243;-14
2022/08/11 11:32:30;;;;;;;5.53;2.05;;;;;;;;;;5046559;28;20236;-14
2022/08/11 11:35:15;;;;;;;3.70;2.05;;;;;;;;;;5032334;28;20230;-14
2022/08/11 11:37:44;;;;;;;2.40;1.90;;;;;;;;;;5022491;28;20239;-14
2022/08/11 11:40:30;;;;;;;2.63;2.00;;;;;;;;;;5031968;28;21472;-14
2022/08/11 11:43:00;;;;;;;3.17;2.30;;;;;;;;;;5032193;28;20233;-14
2022/08/11 11:45:27;;;;;;;3.03;2.20;;;;;;;;;;5032547;28;20702;-14
2022/08/11 11:47:55;;;;;;;4.78;2.10;;;;;;;;;;5032452;28;20236;-14
2022/08/11 11:50:23;;;;;;;2.63;2.10;;;;;;;;;;5041390;28;20997;-14
2022/08/11 11:52:52;;;;;;;4.68;1.95;;;;;;;;;;5048101;28;20226;-14
2022/08/11 11:55:20;;;;;;;4.32;2.35;;;;;;;;;;5031872;28;20239;-14
2022/08/11 12:03:20;;;;;;;2.33;2.13;;;;;;;;;;5033518;28;20607;-14
2022/08/11 12:05:48;;;;;;;4.38;1.70;;;;;;;;;;5032161;28;20258;-14
2022/08/11 12:08:16;;;;;;;3.35;2.30;;;;;;;;;;5045878;28;20242;-15
2022/08/11 12:10:44;;;;;;;4.03;2.20;;;;;;;;;;5031798;28;20231;-14
2022/08/11 12:16:00;;;;;;;3.17;1.83;;;;;;;;;;5039046;28;20226;-15
2022/08/11 12:18:47;;;;;;;4.90;2.33;;;;;;;;;;5032285;28;20702;-14
2022/08/11 12:21:18;;;;;;;3.20;2.22;;;;;;;;;;5043059;28;20345;-15
2022/08/11 12:29:36;;;;;;;2.00;1.80;;;;;;;;;;5027797;28;20716;-15
2022/08/11 12:32:11;;;;;;;2.03;1.85;;;;;;;;;;5038764;28;20227;-14
2022/08/11 12:34:38;;;;;;;3.42;1.80;;;;;;;;;;5031778;28;20226;-14
2022/08/11 12:37:09;;;;;;;3.25;2.00;;;;;;;;;;5031148;28;20227;-14
2022/08/11 12:45:50;;;;;;;3.00;2.28;;;;;;;;;;5037653;28;20285;-15
2022/08/11 12:54:31;;;;;;;2.53;1.90;;;;;;;;;;5031471;28;20239;-14
2022/08/11 13:05:34;;;;;;;2.47;2.10;;;;;;;;;;5031546;28;20326;-14
2022/08/11 13:08:12;;;;;;;6.15;2.53;;;;;;;;;;5030539;28;21054;-14
2022/08/11 13:13:25;;;;;;;2.13;1.85;;;;;;;;;;5031208;28;20235;-14
2022/08/11 13:16:13;;;;;;;4.22;2.17;;;;;;;;;;5043072;28;20233;-15
2022/08/11 13:18:41;;;;;;;3.90;2.20;;;;;;;;;;5033158;28;20235;-15
2022/08/11 13:21:10;;;;;;;2.22;2.03;;;;;;;;;;5040556;28;20249;-14
2022/08/11 13:23:46;;;;;;;3.25;2.30;;;;;;;;;;5031356;28;20245;-14
2022/08/11 13:26:30;;;;;;;6.65;2.30;;;;;;;;;;5030990;28;20326;-14
2022/08/11 13:29:13;;;;;;;3.67;2.03;;;;;;;;;;5034739;28;20266;-14
2022/08/11 13:31:42;;;;;;;3.53;2.08;;;;;;;;;;5030576;28;20245;-14
2022/08/11 13:34:10;;;;;;;2.88;2.20;;;;;;;;;;5030857;28;20233;-15
2022/08/11 13:36:39;;;;;;;2.33;2.13;;;;;;;;;;5030886;28;20262;-14
2022/08/11 13:39:07;;;;;;;3.25;2.40;;;;;;;;;;5030971;28;20241;-14
2022/08/11 13:41:41;;;;;;;2.45;2.05;;;;;;;;;;5030807;28;20699;-14
2022/08/11 13:44:09;;;;;;;2.15;1.90;;;;;;;;;;5030577;28;20807;-15
2022/08/11 13:46:37;;;;;;;2.83;2.08;;;;;;;;;;5037570;28;20329;-14
2022/08/11 13:49:06;;;;;;;2.60;2.40;;;;;;;;;;5030621;28;20251;-14
2022/08/11 13:51:33;;;;;;;2.15;1.95;;;;;;;;;;5030495;28;20241;-14
2022/08/11 13:54:03;;;;;;;2.00;1.90;;;;;;;;;;5030643;28;21092;-14
2022/08/11 13:56:31;;;;;;;4.22;2.30;;;;;;;;;;5030317;28;20235;-14
2022/08/11 13:58:58;;;;;;;4.43;2.00;;;;;;;;;;5030408;28;20238;-14
2022/08/11 14:01:28;;;;;;;5.05;2.38;;;;;;;;;;5039147;28;20237;-14
2022/08/11 14:04:16;;;;;;;4.32;2.10;;;;;;;;;;5032658;28;20242;-14
2022/08/11 14:06:58;;;;;;;3.53;1.95;;;;;;;;;;5033638;28;20807;-14
2022/08/11 14:09:28;;;;;;;3.03;2.00;;;;;;;;;;5034037;28;20273;-14
2022/08/11 14:14:53;;;;;;;2.45;2.13;;;;;;;;;;5042283;28;20255;-14
2022/08/11 14:17:21;;;;;;;2.10;2.00;;;;;;;;;;5045183;28;20226;-14
2022/08/11 14:20:09;;;;;;;2.25;2.00;;;;;;;;;;5048215;28;20234;-14
2022/08/11 14:22:55;;;;;;;2.78;2.08;;;;;;;;;;5033435;28;20242;-15
2022/08/11 14:25:25;;;;;;;4.05;2.35;;;;;;;;;;5034044;28;20234;-14
2022/08/11 14:28:14;;;;;;;2.50;2.30;;;;;;;;;;5034105;28;20994;-15
2022/08/11 14:30:59;;;;;;;2.28;2.05;;;;;;;;;;5037008;28;20706;-15
2022/08/11 14:33:28;;;;;;;3.42;2.03;;;;;;;;;;5043292;28;20270;-15
2022/08/11 14:36:15;;;;;;;2.35;1.95;;;;;;;;;;5033216;28;20237;-14
2022/08/11 14:38:42;;;;;;;3.17;2.45;;;;;;;;;;5033409;28;20237;-14
2022/08/11 14:49:22;;;;;;;2.58;2.20;;;;;;;;;;5020078;28;20238;-14
2022/08/11 14:51:52;;;;;;;2.10;1.90;;;;;;;;;;5033630;28;20241;-14
2022/08/11 14:57:06;;;;;;;3.63;2.30;;;;;;;;;;5041045;28;20226;-14
2022/08/11 14:59:33;;;;;;;4.78;2.20;;;;;;;;;;5037806;28;20235;-14
2022/08/11 15:04:46;;;;;;;2.33;2.10;;;;;;;;;;5032951;28;20235;-14
2022/08/11 15:07:13;;;;;;;2.65;2.15;;;;;;;;;;5032778;28;20701;-14
2022/08/11 15:09:43;;;;;;;4.85;2.30;;;;;;;;;;5032214;28;20246;-14
2022/08/11 15:12:33;;;;;;;2.13;1.92;;;;;;;;;;5033315;28;20258;-15
2022/08/11 15:17:46;;;;;;;3.10;2.13;;;;;;;;;;5032952;28;20239;-15
2022/08/11 15:25:46;;;;;;;2.08;1.77;;;;;;;;;;5019545;28;20230;-14
2022/08/11 15:39:17;;;;;;;6.13;2.17;;;;;;;;;;5032521;28;20330;-14
2022/08/11 15:47:34;;;;;;;2.42;2.05;;;;;;;;;;5026599;28;20246;-15
2022/08/11 15:50:04;;;;;;;2.72;2.00;;;;;;;;;;5018859;28;20657;-14
2022/08/11 15:52:42;;;;;;;2.35;2.10;;;;;;;;;;5032340;28;20293;-15
2022/08/11 15:55:09;;;;;;;2.60;1.95;;;;;;;;;;5045416;28;20230;-14
2022/08/11 16:06:13;;;;;;;2.40;1.80;;;;;;;;;;5032280;28;21030;-14
2022/08/11 16:08:41;;;;;;;2.85;1.48;;;;;;;;;;5032215;28;20998;-14
2022/08/11 16:11:10;;;;;;;2.97;1.80;;;;;;;;;;5032240;28;20238;-14
2022/08/11 16:16:24;;;;;;;4.30;2.22;;;;;;;;;;5032005;28;20256;-15
2022/08/11 16:18:54;;;;;;;3.03;1.80;;;;;;;;;;5031775;28;20325;-15
2022/08/11 16:21:24;;;;;;;2.35;1.73;;;;;;;;;;5031225;28;20252;-15
2022/08/11 16:24:03;;;;;;;3.97;1.92;;;;;;;;;;5032109;28;20243;-14
2022/08/11 16:26:30;;;;;;;2.83;1.70;;;;;;;;;;5030294;28;20245;-14
2022/08/11 16:29:17;;;;;;;2.13;1.70;;;;;;;;;;5019368;28;20234;-14
2022/08/11 16:32:15;;;;;;;3.97;1.90;;;;;;;;;;5035620;28;20231;-15
2022/08/11 16:40:05;;;;;;;3.03;1.70;;;;;;;;;;5031673;28;20230;-15
2022/08/11 16:48:26;;;;;;;4.75;1.80;;;;;;;;;;5024537;28;20682;-15
2022/08/11 16:51:04;;;;;;;5.07;1.63;;;;;;;;;;5036415;28;21042;-15
2022/08/11 16:53:32;;;;;;;1.88;1.63;;;;;;;;;;5038419;28;20228;-14
2022/08/11 16:56:20;;;;;;;6.68;1.90;;;;;;;;;;5037252;28;20246;-14
2022/08/11 17:01:34;;;;;;;2.45;1.83;;;;;;;;;;5031119;28;20238;-15
2022/08/11 17:13:22;;;;;;;2.92;1.83;;;;;;;;;;5031295;28;20226;-14
2022/08/11 17:16:10;;;;;;;2.78;1.80;;;;;;;;;;5037651;28;20272;-14
2022/08/11 17:18:41;;;;;;;1.70;1.40;;;;;;;;;;5032754;28;20231;-14
2022/08/11 17:21:11;;;;;;;2.08;1.83;;;;;;;;;;5029719;28;20250;-14
2022/08/11 17:23:49;;;;;;;2.83;1.77;;;;;;;;;;5028567;28;20981;-14
2022/08/11 17:26:17;;;;;;;3.45;1.70;;;;;;;;;;5041685;28;21052;-14
2022/08/11 17:28:44;;;;;;;2.42;1.70;;;;;;;;;;5036875;28;20230;-14
2022/08/11 17:36:43;;;;;;;2.05;1.55;;;;;;;;;;5031367;28;20235;-14
2022/08/11 17:39:12;;;;;;;3.72;1.60;;;;;;;;;;5035647;28;20321;-15
2022/08/11 17:50:06;;;;;;;2.22;1.73;;;;;;;;;;4972749;28;20245;-15
2022/08/11 18:01:04;;;;;;;1.83;1.60;;;;;;;;;;5042104;28;20229;-15
2022/08/11 18:03:38;;;;;;;2.42;1.80;;;;;;;;;;5020289;28;20579;-15
2022/08/11 18:06:06;;;;;;;1.90;1.73;;;;;;;;;;5025954;28;20227;-15
